首页
METAR-TAF:

METAR-TAF

机场 :

石油平台

Hoorn-a, 荷兰

纬度: 52-55-05N, 经度: 4-09-01E, 海拔: 41米

当前天气观测

该预报发布于31分钟前的04:25 UTC
风速25节,风向西转西北
温度 9°C
湿度 61%
气压 1011 hPa
能见度10公里或以上
少量云层高于2800英尺
散云层高于3200英尺
多云层高于4400英尺

METAR: EHQE 190425Z AUTO 29025KT 9999 FEW028 SCT032 BKN044 09/02 Q1011 W///H///

时间: 05:56 (04:56 UTC)


TAF: 丢失

超过4000个机场的气象观测和天气预报(METAR&TAF报告)。

可查询的气象台以黄色和红色小点在地图上表示。

将鼠标移到小点上方,可查看气象台名称。

然后点击查看天气观测和预报。

如需切换地图:点击带黑十字的绿色按钮放大地图;点击带横线的绿色按钮缩小地图;或者点击绿色箭头查看邻近地区的地图。


METAR-TAF: